createdAt,value
2019-05-25T00:02:30.120Z,13.75
2019-05-25T00:05:05.575Z,13.82
2019-05-25T00:07:39.262Z,13.86
2019-05-25T00:10:13.406Z,13.71
2019-05-25T00:12:47.132Z,13.44
2019-05-25T00:15:20.859Z,13.59
2019-05-25T00:17:54.543Z,13.64
2019-05-25T00:20:28.287Z,13.64
2019-05-25T00:23:01.992Z,13.42
2019-05-25T00:25:35.730Z,13.25
2019-05-25T00:28:09.419Z,13.45
2019-05-25T00:30:43.132Z,13.29
2019-05-25T00:33:16.853Z,13.27
2019-05-25T00:35:50.562Z,12.98
2019-05-25T00:38:24.268Z,12.97
2019-05-25T00:40:57.982Z,13.22
2019-05-25T00:43:31.682Z,13.22
2019-05-25T00:46:05.379Z,13.00
2019-05-25T00:48:39.169Z,13.00
2019-05-25T00:51:13.462Z,13.70
2019-05-25T00:53:47.173Z,13.67
2019-05-25T00:56:20.873Z,13.65
2019-05-25T00:58:54.567Z,14.10
2019-05-25T01:01:28.279Z,14.34
2019-05-25T01:04:01.976Z,14.73
2019-05-25T01:06:35.683Z,14.64
2019-05-25T01:09:09.387Z,14.64
2019-05-25T01:11:43.455Z,14.56
2019-05-25T01:14:17.239Z,14.15
2019-05-25T01:16:50.954Z,14.09
2019-05-25T01:19:24.652Z,14.09
2019-05-25T01:21:58.468Z,14.09
2019-05-25T01:24:43.856Z,14.12
2019-05-25T01:27:07.589Z,13.81
2019-05-25T01:29:41.281Z,13.63
2019-05-25T01:32:15.156Z,13.63
2019-05-25T01:34:49.343Z,14.05
2019-05-25T01:37:23.058Z,14.11
2019-05-25T01:39:56.760Z,14.22
2019-05-25T01:42:30.472Z,14.08
2019-05-25T01:45:05.684Z,13.73
2019-05-25T01:47:39.603Z,13.73
2019-05-25T01:50:13.816Z,13.60
2019-05-25T01:52:47.789Z,13.84
2019-05-25T01:55:21.519Z,14.21
2019-05-25T01:57:55.202Z,13.99
2019-05-25T02:00:28.894Z,14.19
2019-05-25T02:03:02.676Z,14.57
2019-05-25T02:05:36.368Z,14.60
2019-05-25T02:08:10.085Z,14.51
2019-05-25T02:10:43.788Z,14.51
2019-05-25T02:13:17.482Z,14.28
2019-05-25T02:15:51.351Z,14.56
2019-05-25T02:18:25.043Z,14.46
2019-05-25T02:20:58.736Z,14.03
2019-05-25T02:23:32.438Z,14.34
2019-05-25T02:26:06.122Z,14.64
2019-05-25T02:28:39.823Z,14.48
2019-05-25T02:31:13.533Z,14.44
2019-05-25T02:33:47.226Z,14.57
2019-05-25T02:36:21.039Z,14.18
2019-05-25T02:38:54.707Z,14.18
2019-05-25T02:41:28.471Z,14.56
2019-05-25T02:44:03.926Z,13.92
2019-05-25T02:46:37.622Z,14.12
2019-05-25T02:49:11.363Z,14.12
2019-05-25T02:51:45.059Z,14.11
2019-05-25T02:54:18.761Z,14.11
2019-05-25T02:56:52.455Z,13.86
2019-05-25T02:59:26.145Z,13.93
2019-05-25T03:01:59.854Z,14.13
2019-05-25T03:04:33.555Z,14.22
2019-05-25T03:07:07.253Z,14.48
2019-05-25T03:09:40.938Z,14.48
2019-05-25T03:12:14.737Z,13.82
2019-05-25T03:14:48.439Z,13.82
2019-05-25T03:17:22.138Z,14.36
2019-05-25T03:19:55.831Z,14.41
2019-05-25T03:22:29.544Z,13.69
2019-05-25T03:25:05.921Z,13.43
2019-05-25T03:27:39.621Z,13.04
2019-05-25T03:30:14.007Z,13.51
2019-05-25T03:32:47.695Z,13.51
2019-05-25T03:35:21.403Z,13.75
2019-05-25T03:37:55.240Z,13.63
2019-05-25T03:40:28.930Z,13.62
2019-05-25T03:43:02.689Z,13.62
2019-05-25T03:45:36.403Z,13.92
2019-05-25T03:48:10.110Z,13.92
2019-05-25T03:50:43.806Z,14.41
2019-05-25T03:53:17.490Z,13.99
2019-05-25T03:56:04.746Z,14.42
2019-05-25T03:58:26.596Z,14.42
2019-05-25T04:01:01.163Z,14.34
2019-05-25T04:03:34.860Z,14.34
2019-05-25T04:06:08.568Z,14.35
2019-05-25T04:08:42.270Z,14.35
2019-05-25T04:11:16.080Z,14.54
2019-05-25T04:13:49.770Z,14.95
2019-05-25T04:16:23.476Z,14.95
2019-05-25T04:18:57.165Z,14.33
2019-05-25T04:21:30.883Z,14.33
2019-05-25T04:24:05.034Z,14.36
2019-05-25T04:26:38.736Z,14.66
2019-05-25T04:29:13.327Z,14.92
2019-05-25T04:31:47.030Z,14.98
2019-05-25T04:34:20.737Z,14.88
2019-05-25T04:36:54.427Z,14.76
2019-05-25T04:39:28.129Z,14.76
2019-05-25T04:42:01.817Z,14.87
2019-05-25T04:44:35.519Z,14.46
2019-05-25T04:47:09.232Z,14.46
2019-05-25T04:49:42.919Z,14.33
2019-05-25T04:52:16.628Z,14.11
2019-05-25T04:54:50.319Z,14.11
2019-05-25T04:57:24.019Z,14.17
2019-05-25T04:59:57.721Z,14.17
2019-05-25T05:02:31.397Z,13.95
2019-05-25T05:05:06.028Z,13.71
2019-05-25T05:07:39.814Z,14.05
2019-05-25T05:10:13.621Z,14.05
2019-05-25T05:12:47.358Z,14.02
2019-05-25T05:15:21.055Z,14.33
2019-05-25T05:17:54.764Z,14.05
2019-05-25T05:20:28.582Z,14.05
2019-05-25T05:23:02.280Z,13.68
2019-05-25T05:25:35.940Z,14.35
2019-05-25T05:28:09.658Z,14.35
2019-05-25T05:30:43.420Z,14.52
2019-05-25T05:33:17.165Z,14.90
2019-05-25T05:35:50.912Z,14.74
2019-05-25T05:38:24.667Z,14.74
2019-05-25T05:40:58.349Z,14.98
2019-05-25T05:43:32.054Z,14.87
2019-05-25T05:46:05.826Z,15.06
2019-05-25T05:48:39.524Z,14.36
2019-05-25T05:51:13.749Z,14.36
2019-05-25T05:53:48.046Z,14.27
2019-05-25T05:56:21.797Z,14.18
2019-05-25T05:58:55.526Z,14.27
2019-05-25T06:01:29.801Z,14.41
2019-05-25T06:04:03.560Z,13.59
2019-05-25T06:06:37.347Z,13.59
2019-05-25T06:09:11.048Z,13.99
2019-05-25T06:11:44.735Z,13.99
2019-05-25T06:14:18.427Z,14.00
2019-05-25T06:16:52.127Z,13.80
2019-05-25T06:19:25.855Z,14.13
2019-05-25T06:21:59.567Z,14.09
2019-05-25T06:24:33.267Z,14.54
2019-05-25T06:27:06.976Z,14.54
2019-05-25T06:29:40.629Z,14.40
2019-05-25T06:32:14.348Z,14.41
2019-05-25T06:34:48.032Z,14.41
2019-05-25T06:37:21.721Z,14.55
2019-05-25T06:39:57.113Z,14.40
2019-05-25T06:42:30.818Z,14.40
2019-05-25T06:45:05.669Z,14.48
2019-05-25T06:47:39.379Z,14.36
2019-05-25T06:50:14.021Z,14.08
2019-05-25T06:52:47.721Z,14.26
2019-05-25T06:55:21.422Z,13.81
2019-05-25T06:57:55.129Z,13.81
2019-05-25T07:00:28.830Z,13.97
2019-05-25T07:03:02.510Z,13.82
2019-05-25T07:05:36.251Z,14.00
2019-05-25T07:08:09.954Z,14.03
2019-05-25T07:10:45.063Z,13.97
2019-05-25T07:13:18.757Z,14.06
2019-05-25T07:15:52.462Z,14.06
2019-05-25T07:18:26.175Z,14.04
2019-05-25T07:20:59.877Z,13.89
2019-05-25T07:23:33.569Z,14.11
2019-05-25T07:26:07.307Z,14.17
2019-05-25T07:28:41.788Z,14.71
2019-05-25T07:31:15.516Z,15.04
2019-05-25T07:33:49.204Z,14.94
2019-05-25T07:36:23.017Z,14.92
2019-05-25T07:38:56.795Z,14.92
2019-05-25T07:41:30.491Z,14.99
2019-05-25T07:44:04.222Z,14.99
2019-05-25T07:46:37.963Z,14.94
2019-05-25T07:49:11.657Z,14.90
2019-05-25T07:51:45.370Z,15.54
2019-05-25T07:54:19.045Z,15.54
2019-05-25T07:56:52.758Z,15.08
2019-05-25T07:59:26.466Z,15.34
2019-05-25T08:02:00.172Z,15.34
2019-05-25T08:04:33.882Z,15.11
2019-05-25T08:07:07.579Z,14.72
2019-05-25T08:09:41.451Z,14.79
2019-05-25T08:12:15.216Z,14.79
2019-05-25T08:14:48.896Z,15.03
2019-05-25T08:17:22.605Z,15.09
2019-05-25T08:19:56.344Z,15.09
2019-05-25T08:22:30.092Z,15.36
2019-05-25T08:25:08.281Z,15.69
2019-05-25T08:27:41.989Z,15.33
2019-05-25T08:30:15.678Z,15.15
2019-05-25T08:32:52.667Z,14.96
2019-05-25T08:35:26.366Z,15.15
2019-05-25T08:38:00.145Z,15.15
2019-05-25T08:40:33.850Z,15.25
2019-05-25T08:43:07.567Z,15.56
2019-05-25T08:45:41.289Z,15.47
2019-05-25T08:48:15.085Z,15.47
2019-05-25T08:50:48.802Z,15.51
2019-05-25T08:53:37.803Z,15.85
2019-05-25T08:55:57.998Z,16.03
2019-05-25T08:58:47.295Z,16.03
2019-05-25T09:01:07.247Z,16.23
2019-05-25T09:03:40.976Z,15.94
2019-05-25T09:06:14.777Z,15.95
2019-05-25T09:08:48.502Z,15.89
2019-05-25T09:11:22.229Z,15.26
2019-05-25T09:13:55.930Z,15.56
2019-05-25T09:16:29.654Z,15.56
2019-05-25T09:19:03.332Z,15.39
2019-05-25T09:21:37.057Z,15.02
2019-05-25T09:24:10.908Z,15.02
2019-05-25T09:26:44.613Z,15.63
2019-05-25T09:29:18.311Z,15.72
2019-05-25T09:31:52.025Z,15.77
2019-05-25T09:34:25.744Z,15.75
2019-05-25T09:36:59.445Z,16.04
2019-05-25T09:39:33.186Z,16.08
2019-05-25T09:42:06.892Z,16.07
2019-05-25T09:44:40.662Z,16.07
2019-05-25T09:47:14.363Z,16.01
2019-05-25T09:49:49.311Z,16.01
2019-05-25T09:52:23.061Z,16.44
2019-05-25T09:54:56.779Z,16.49
2019-05-25T09:57:30.604Z,16.62
2019-05-25T10:00:08.166Z,16.67
2019-05-25T10:02:42.813Z,16.47
2019-05-25T10:05:16.937Z,15.96
2019-05-25T10:07:50.674Z,15.96
2019-05-25T10:10:25.068Z,15.95
2019-05-25T10:12:58.817Z,15.62
2019-05-25T10:15:32.509Z,16.13
2019-05-25T10:18:06.208Z,16.15
2019-05-25T10:20:40.328Z,15.67
2019-05-25T10:23:14.022Z,15.03
2019-05-25T10:25:48.496Z,14.84
2019-05-25T10:28:22.204Z,14.84
2019-05-25T10:30:55.916Z,14.87
2019-05-25T10:33:29.613Z,15.34
2019-05-25T10:36:03.427Z,15.26
2019-05-25T10:38:37.129Z,15.64
2019-05-25T10:41:10.858Z,15.64
2019-05-25T10:43:44.533Z,15.85
2019-05-25T10:46:18.344Z,15.85
2019-05-25T10:48:52.047Z,15.21
2019-05-25T10:51:25.839Z,15.18
2019-05-25T10:53:59.540Z,15.18
2019-05-25T10:56:33.252Z,16.03
2019-05-25T10:59:06.960Z,16.89
2019-05-25T11:01:40.668Z,17.04
2019-05-25T11:04:14.872Z,17.04
2019-05-25T11:06:49.951Z,17.43
2019-05-25T11:09:23.653Z,17.18
2019-05-25T11:11:57.372Z,17.45
2019-05-25T11:14:31.086Z,17.16
2019-05-25T11:17:04.768Z,17.46
2019-05-25T11:19:38.477Z,16.65
2019-05-25T11:22:12.180Z,16.24
2019-05-25T11:24:45.985Z,16.24
2019-05-25T11:27:19.713Z,17.16
2019-05-25T11:30:07.979Z,17.16
2019-05-25T11:32:28.814Z,16.83
2019-05-25T11:35:03.260Z,16.81
2019-05-25T11:37:36.971Z,17.19
2019-05-25T11:40:10.669Z,17.19
2019-05-25T11:42:44.344Z,16.92
2019-05-25T11:45:18.046Z,16.92
2019-05-25T11:47:51.752Z,16.52
2019-05-25T11:50:25.477Z,16.50
2019-05-25T11:52:59.187Z,16.49
2019-05-25T11:55:32.873Z,16.40
2019-05-25T11:58:06.578Z,16.67
2019-05-25T12:00:40.280Z,16.67
2019-05-25T12:03:13.979Z,16.54
2019-05-25T12:05:47.682Z,16.93
2019-05-25T12:08:21.366Z,16.93
2019-05-25T12:10:55.076Z,17.11
2019-05-25T12:13:31.931Z,17.11
2019-05-25T12:16:04.189Z,17.31
2019-05-25T12:18:37.880Z,17.31
2019-05-25T12:21:11.587Z,16.68
2019-05-25T12:23:45.264Z,17.16
2019-05-25T12:26:18.976Z,17.75
2019-05-25T12:28:52.701Z,17.68
2019-05-25T12:31:26.406Z,17.62
2019-05-25T12:34:00.103Z,17.79
2019-05-25T12:36:33.813Z,17.79
2019-05-25T12:39:07.506Z,17.69
2019-05-25T12:41:41.225Z,17.33
2019-05-25T12:44:14.931Z,17.33
2019-05-25T12:46:48.635Z,17.72
2019-05-25T12:49:22.334Z,18.04
2019-05-25T12:51:56.028Z,17.93
2019-05-25T12:54:29.734Z,18.23
2019-05-25T12:57:03.502Z,18.23
2019-05-25T12:59:37.225Z,18.12
2019-05-25T13:02:10.930Z,18.77
2019-05-25T13:04:44.643Z,18.77
2019-05-25T13:07:18.345Z,19.23
2019-05-25T13:09:52.049Z,18.92
2019-05-25T13:12:25.747Z,18.46
2019-05-25T13:14:59.509Z,18.09
2019-05-25T13:17:33.265Z,18.34
2019-05-25T13:20:07.009Z,18.34
2019-05-25T13:22:40.718Z,18.45
2019-05-25T13:25:14.421Z,18.12
2019-05-25T13:27:48.117Z,18.12
2019-05-25T13:30:21.832Z,18.19
2019-05-25T13:32:55.519Z,18.07
2019-05-25T13:35:29.234Z,18.07
2019-05-25T13:38:02.944Z,17.99
2019-05-25T13:40:36.630Z,17.98
2019-05-25T13:43:10.749Z,17.73
2019-05-25T13:45:46.111Z,17.73
2019-05-25T13:48:20.014Z,17.72
2019-05-25T13:50:54.298Z,17.80
2019-05-25T13:53:27.973Z,17.73
2019-05-25T13:56:01.685Z,17.72
2019-05-25T13:58:35.379Z,17.85
2019-05-25T14:01:09.084Z,17.85
2019-05-25T14:03:42.804Z,17.78
2019-05-25T14:06:16.500Z,17.78
2019-05-25T14:08:50.220Z,17.36
2019-05-25T14:11:23.922Z,17.39
2019-05-25T14:13:57.637Z,17.39
2019-05-25T14:16:31.324Z,17.63
2019-05-25T14:19:05.025Z,18.15
2019-05-25T14:21:38.753Z,18.26
2019-05-25T14:24:12.444Z,18.66
2019-05-25T14:26:46.158Z,18.73
2019-05-25T14:29:19.849Z,18.61
2019-05-25T14:31:53.637Z,18.65
2019-05-25T14:34:27.323Z,18.65
2019-05-25T14:37:01.088Z,20.33
2019-05-25T14:39:34.793Z,20.33
2019-05-25T14:42:08.481Z,20.10
2019-05-25T14:44:42.385Z,20.01
2019-05-25T14:47:16.132Z,20.19
2019-05-25T14:49:49.850Z,20.05
2019-05-25T14:52:23.543Z,19.77
2019-05-25T14:54:57.241Z,19.34
2019-05-25T14:57:30.950Z,19.16
2019-05-25T15:00:06.476Z,19.16
2019-05-25T15:02:40.339Z,19.12
2019-05-25T15:05:14.071Z,19.44
2019-05-25T15:07:48.435Z,19.74
2019-05-25T15:10:22.217Z,20.33
2019-05-25T15:12:56.006Z,20.33
2019-05-25T15:15:29.675Z,20.81
2019-05-25T15:18:03.781Z,21.59
2019-05-25T15:20:38.767Z,21.59
2019-05-25T15:23:12.474Z,22.68
2019-05-25T15:25:46.158Z,21.54
2019-05-25T15:28:19.864Z,21.86
2019-05-25T15:30:53.646Z,22.21
2019-05-25T15:33:27.377Z,23.06
2019-05-25T15:36:01.102Z,23.99
2019-05-25T15:38:34.790Z,23.96
2019-05-25T15:41:08.836Z,23.75
2019-05-25T15:43:42.534Z,23.75
2019-05-25T15:46:16.217Z,24.08
2019-05-25T15:48:49.913Z,25.08
2019-05-25T15:51:23.622Z,25.08
2019-05-25T15:53:57.317Z,25.29
2019-05-25T15:56:31.029Z,25.05
2019-05-25T15:59:04.726Z,25.05
2019-05-25T16:01:38.423Z,24.10
2019-05-25T16:04:13.744Z,24.10
2019-05-25T16:06:47.456Z,23.44
2019-05-25T16:09:21.151Z,23.03
2019-05-25T16:11:54.905Z,22.36
2019-05-25T16:14:28.712Z,22.32
2019-05-25T16:17:02.412Z,21.55
2019-05-25T16:19:36.097Z,21.34
2019-05-25T16:22:09.767Z,21.34
2019-05-25T16:24:43.523Z,20.97
2019-05-25T16:27:17.280Z,20.97
2019-05-25T16:29:50.977Z,21.75
2019-05-25T16:32:24.683Z,21.23
2019-05-25T16:34:58.390Z,21.23
2019-05-25T16:37:32.215Z,20.93
2019-05-25T16:40:06.302Z,20.70
2019-05-25T16:42:39.991Z,20.70
2019-05-25T16:45:13.753Z,20.85
2019-05-25T16:47:47.461Z,20.81
2019-05-25T16:50:21.149Z,20.81
2019-05-25T16:52:54.914Z,20.45
2019-05-25T16:55:28.718Z,20.27
2019-05-25T16:58:02.395Z,20.27
2019-05-25T17:00:36.193Z,20.16
2019-05-25T17:03:26.577Z,20.30
2019-05-25T17:05:45.283Z,20.70
2019-05-25T17:08:19.182Z,20.96
2019-05-25T17:10:52.891Z,21.08
2019-05-25T17:13:26.664Z,21.08
2019-05-25T17:16:00.395Z,21.03
2019-05-25T17:18:34.109Z,20.82
2019-05-25T17:21:07.805Z,20.45
2019-05-25T17:23:41.539Z,20.45
2019-05-25T17:26:15.279Z,20.22
2019-05-25T17:28:49.055Z,20.00
2019-05-25T17:31:22.730Z,20.00
2019-05-25T17:33:56.439Z,19.95
2019-05-25T17:36:30.188Z,19.91
2019-05-25T17:39:06.056Z,20.44
2019-05-25T17:41:39.767Z,20.58
2019-05-25T17:44:13.558Z,20.58
2019-05-25T17:46:47.272Z,20.93
2019-05-25T17:49:21.009Z,20.80
2019-05-25T17:51:54.730Z,19.93
2019-05-25T17:54:28.418Z,20.41
2019-05-25T17:57:02.322Z,20.41
2019-05-25T17:59:36.058Z,20.63
2019-05-25T18:02:09.767Z,20.36
2019-05-25T18:04:43.484Z,20.36
2019-05-25T18:07:17.215Z,19.68
2019-05-25T18:09:50.904Z,19.45
2019-05-25T18:12:24.599Z,19.45
2019-05-25T18:14:58.323Z,19.36
2019-05-25T18:17:32.114Z,20.21
2019-05-25T18:20:09.662Z,20.00
2019-05-25T18:22:43.409Z,19.69
2019-05-25T18:25:17.101Z,19.07
2019-05-25T18:27:50.877Z,19.50
2019-05-25T18:30:24.859Z,19.50
2019-05-25T18:32:58.599Z,18.88
2019-05-25T18:35:32.453Z,18.89
2019-05-25T18:38:06.575Z,18.89
2019-05-25T18:40:40.596Z,18.65
2019-05-25T18:43:15.318Z,18.91
2019-05-25T18:45:49.014Z,18.69
2019-05-25T18:48:22.826Z,18.81
2019-05-25T18:50:56.509Z,18.65
2019-05-25T18:53:30.369Z,18.65
2019-05-25T18:56:04.210Z,18.18
2019-05-25T18:58:37.912Z,18.18
2019-05-25T19:01:11.709Z,17.98
2019-05-25T19:03:45.394Z,18.05
2019-05-25T19:06:20.266Z,18.05
2019-05-25T19:08:53.985Z,17.94
2019-05-25T19:11:27.697Z,18.08
2019-05-25T19:14:01.439Z,18.08
2019-05-25T19:16:35.966Z,18.01
2019-05-25T19:19:09.680Z,18.01
2019-05-25T19:21:43.393Z,18.22
2019-05-25T19:24:17.095Z,18.22
2019-05-25T19:26:50.828Z,18.30
2019-05-25T19:29:24.548Z,18.23
2019-05-25T19:31:58.275Z,18.05
2019-05-25T19:34:32.010Z,18.26
2019-05-25T19:37:05.736Z,18.28
2019-05-25T19:39:39.492Z,18.28
2019-05-25T19:42:13.729Z,18.27
2019-05-25T19:44:47.460Z,18.25
2019-05-25T19:47:21.179Z,18.17
2019-05-25T19:49:54.888Z,18.04
2019-05-25T19:52:28.634Z,17.98
2019-05-25T19:55:04.368Z,17.86
2019-05-25T19:57:38.169Z,17.70
2019-05-25T20:00:11.991Z,17.44
2019-05-25T20:02:45.707Z,17.44
2019-05-25T20:05:19.531Z,17.40
2019-05-25T20:07:53.271Z,17.40
2019-05-25T20:10:27.237Z,17.30
2019-05-25T20:13:00.956Z,17.26
2019-05-25T20:15:34.715Z,17.25
2019-05-25T20:18:08.412Z,17.23
2019-05-25T20:20:42.143Z,17.23
2019-05-25T20:23:15.898Z,17.04
2019-05-25T20:25:49.740Z,16.90
2019-05-25T20:28:23.498Z,16.90
2019-05-25T20:30:57.232Z,16.87
2019-05-25T20:33:34.651Z,16.85
2019-05-25T20:36:06.530Z,16.72
2019-05-25T20:38:40.341Z,16.61
2019-05-25T20:41:14.069Z,16.57
2019-05-25T20:43:47.841Z,16.54
2019-05-25T20:46:21.562Z,16.51
2019-05-25T20:48:55.252Z,16.43
2019-05-25T20:51:29.038Z,16.39
2019-05-25T20:54:02.866Z,16.39
2019-05-25T20:56:36.711Z,16.27
2019-05-25T20:59:10.457Z,16.23
2019-05-25T21:01:44.353Z,16.23
2019-05-25T21:04:18.165Z,16.09
2019-05-25T21:06:51.961Z,15.79
2019-05-25T21:09:25.779Z,15.80
2019-05-25T21:11:59.562Z,15.83
2019-05-25T21:14:33.435Z,15.83
2019-05-25T21:17:07.125Z,15.84
2019-05-25T21:19:40.914Z,15.70
2019-05-25T21:22:14.613Z,15.70
2019-05-25T21:24:48.327Z,15.52
2019-05-25T21:27:22.198Z,15.30
2019-05-25T21:29:55.907Z,15.47
2019-05-25T21:32:30.878Z,15.57
2019-05-25T21:35:05.597Z,15.57
2019-05-25T21:37:39.349Z,15.62
2019-05-25T21:40:13.264Z,15.62
2019-05-25T21:42:47.028Z,15.57
2019-05-25T21:45:20.739Z,15.41
2019-05-25T21:47:56.628Z,15.45
2019-05-25T21:50:29.923Z,15.45
2019-05-25T21:53:04.101Z,15.41
2019-05-25T21:55:37.898Z,15.41
2019-05-25T21:58:11.604Z,15.41
2019-05-25T22:00:45.591Z,15.29
2019-05-25T22:03:19.282Z,15.23
2019-05-25T22:05:53.063Z,15.10
2019-05-25T22:08:26.764Z,15.10
2019-05-25T22:11:00.463Z,15.16
2019-05-25T22:13:34.167Z,15.11
2019-05-25T22:16:07.911Z,15.11
2019-05-25T22:18:42.108Z,14.65
2019-05-25T22:21:15.819Z,14.65
2019-05-25T22:23:49.547Z,14.90
2019-05-25T22:26:23.258Z,14.72
2019-05-25T22:28:57.146Z,14.83
2019-05-25T22:31:30.876Z,14.83
2019-05-25T22:34:04.565Z,14.85
2019-05-25T22:36:40.847Z,14.85
2019-05-25T22:39:13.732Z,14.95
2019-05-25T22:41:47.441Z,14.83
2019-05-25T22:44:21.140Z,14.86
2019-05-25T22:46:54.994Z,14.86
2019-05-25T22:49:28.765Z,14.72
2019-05-25T22:52:02.497Z,14.72
2019-05-25T22:54:36.191Z,14.76
2019-05-25T22:57:09.932Z,14.82
2019-05-25T22:59:43.779Z,14.82
2019-05-25T23:02:17.462Z,14.66
2019-05-25T23:04:51.173Z,14.74
2019-05-25T23:07:24.872Z,14.59
2019-05-25T23:09:58.577Z,14.57
2019-05-25T23:12:32.827Z,14.57
2019-05-25T23:15:08.277Z,14.56
2019-05-25T23:17:41.983Z,14.52
2019-05-25T23:20:15.882Z,14.51
2019-05-25T23:22:49.579Z,14.51
2019-05-25T23:25:23.292Z,14.52
2019-05-25T23:27:57.012Z,14.51
2019-05-25T23:30:30.733Z,14.51
2019-05-25T23:33:04.436Z,13.93
2019-05-25T23:35:38.152Z,14.24
2019-05-25T23:38:11.858Z,14.29
2019-05-25T23:40:45.565Z,14.25
2019-05-25T23:43:19.346Z,14.25
2019-05-25T23:45:53.065Z,14.07
2019-05-25T23:48:26.753Z,13.71
2019-05-25T23:51:00.489Z,13.85
2019-05-25T23:53:34.259Z,14.06
2019-05-25T23:56:07.970Z,14.06
2019-05-25T23:58:41.689Z,14.13
